Home > Products > Valid Products > TAF

000
FTUS43 KOAX 251726
TAFOMA
TAF
KOMA 251726Z 2518/2618 34015KT P6SM OVC015
     FM260000 34006KT P6SM OVC025
     FM260600 17004KT P6SM BKN040
     FM261500 29011KT P6SM SCT120=



000
FTUS43 KOAX 251726
TAFOFK
TAF
KOFK 251726Z 2518/2618 34012KT P6SM OVC012
     FM260100 24005KT P6SM BKN025
     FM260600 19005KT P6SM BKN040
     FM261200 30012KT P6SM SCT120=



000
FTUS43 KOAX 251726
TAFLNK
TAF
KLNK 251726Z 2518/2618 34015G25KT P6SM OVC018
     FM252200 35013KT P6SM BKN025
     FM260400 17003KT P6SM BKN040
     FM261500 29011KT P6SM SCT120=



000
FTUS43 KOAX 251726
TAFOMA
TAF
KOMA 251726Z 2518/2618 34015KT P6SM OVC015
     FM260000 34006KT P6SM OVC025
     FM260600 17004KT P6SM BKN040
     FM261500 29011KT P6SM SCT120=



000
FTUS43 KOAX 251726
TAFLNK
TAF
KLNK 251726Z 2518/2618 34015G25KT P6SM OVC018
     FM252200 35013KT P6SM BKN025
     FM260400 17003KT P6SM BKN040
     FM261500 29011KT P6SM SCT120=



000
FTUS43 KOAX 251726
TAFOFK
TAF
KOFK 251726Z 2518/2618 34012KT P6SM OVC012
     FM260100 24005KT P6SM BKN025
     FM260600 19005KT P6SM BKN040
     FM261200 30012KT P6SM SCT120=



000
FTUS43 KOAX 251631 AAA
TAFLNK
TAF AMD
KLNK 251631Z 2517/2612 34018G28KT P6SM OVC015
     FM252200 35013KT P6SM BKN025
     FM260200 34005KT P6SM BKN040
     FM260600 18004KT P6SM SCT250=



000
FTUS43 KOAX 251631 AAA
TAFLNK
TAF AMD
KLNK 251631Z 2517/2612 34018G28KT P6SM OVC015
     FM252200 35013KT P6SM BKN025
     FM260200 34005KT P6SM BKN040
     FM260600 18004KT P6SM SCT250=



000
FTUS43 KOAX 251628 AAA
TAFOMA
TAF AMD
KOMA 251628Z 2516/2612 34015KT P6SM OVC012
     FM260000 34006KT P6SM OVC025
     FM260600 17004KT P6SM BKN040=



000
FTUS43 KOAX 251628 AAA
TAFOMA
TAF AMD
KOMA 251628Z 2516/2612 34015KT P6SM OVC012
     FM260000 34006KT P6SM OVC025
     FM260600 17004KT P6SM BKN040=



000
FTUS43 KOAX 251627 AAA
TAFOFK
TAF AMD
KOFK 251627Z 2516/2612 34012KT P6SM OVC008
     FM252200 34010KT P6SM OVC012
     FM260300 24005KT P6SM BKN040=



000
FTUS43 KOAX 251627 AAA
TAFOFK
TAF AMD
KOFK 251627Z 2516/2612 34012KT P6SM OVC008
     FM252200 34010KT P6SM OVC012
     FM260300 24005KT P6SM BKN040=



000
FTUS43 KOAX 251120
TAFOMA
TAF
KOMA 251120Z 2512/2612 33022G32KT P6SM OVC008
      TEMPO 2512/2515 6SM -SN
     FM251700 34018G28KT P6SM OVC015
     FM252200 35013KT P6SM OVC025
     FM260100 34005KT P6SM OVC030
     FM260600 18007KT P6SM SCT250=



000
FTUS43 KOAX 251120
TAFLNK
TAF
KLNK 251120Z 2512/2612 34023G33KT P6SM OVC015
     FM251800 35018G28KT P6SM OVC025
     FM252200 35013KT P6SM OVC040
     FM260100 34005KT P6SM OVC060
     FM260600 20005KT P6SM SCT250=



000
FTUS43 KOAX 251120
TAFOFK
TAF
KOFK 251120Z 2512/2612 34020G30KT P6SM OVC008
      TEMPO 2512/2515 OVC012
     FM251500 34018G28KT P6SM OVC015
     FM251800 35014G20KT P6SM OVC025
     FM252200 34010KT P6SM OVC030
     FM260100 29005KT P6SM BKN040
     FM260600 20006KT P6SM SCT250=



000
FTUS43 KOAX 251120
TAFOFK
TAF
KOFK 251120Z 2512/2612 34020G30KT P6SM OVC008
      TEMPO 2512/2515 OVC012
     FM251500 34018G28KT P6SM OVC015
     FM251800 35014G20KT P6SM OVC025
     FM252200 34010KT P6SM OVC030
     FM260100 29005KT P6SM BKN040
     FM260600 20006KT P6SM SCT250=



000
FTUS43 KOAX 251120
TAFLNK
TAF
KLNK 251120Z 2512/2612 34023G33KT P6SM OVC015
     FM251800 35018G28KT P6SM OVC025
     FM252200 35013KT P6SM OVC040
     FM260100 34005KT P6SM OVC060
     FM260600 20005KT P6SM SCT250=



000
FTUS43 KOAX 251120
TAFOMA
TAF
KOMA 251120Z 2512/2612 33022G32KT P6SM OVC008
      TEMPO 2512/2515 6SM -SN
     FM251700 34018G28KT P6SM OVC015
     FM252200 35013KT P6SM OVC025
     FM260100 34005KT P6SM OVC030
     FM260600 18007KT P6SM SCT250=



000
FTUS43 KOAX 250934 AAC
TAFOFK
TAF AMD
KOFK 250934Z 2510/2606 33022G32KT 5SM -SN BR SCT008 OVC012
      TEMPO 2510/2512 P6SM NSW BKN008
     FM251200 34020G30KT P6SM OVC015
     FM251700 34015G25KT P6SM OVC015
     FM252000 33013KT P6SM OVC025
     FM260100 29005KT P6SM BKN050=



000
FTUS43 KOAX 250934 AAC
TAFOFK
TAF AMD
KOFK 250934Z 2510/2606 33022G32KT 5SM -SN BR SCT008 OVC012
      TEMPO 2510/2512 P6SM NSW BKN008
     FM251200 34020G30KT P6SM OVC015
     FM251700 34015G25KT P6SM OVC015
     FM252000 33013KT P6SM OVC025
     FM260100 29005KT P6SM BKN050=



000
FTUS43 KOAX 250819 AAB
TAFOMA
TAF AMD
KOMA 250819Z 2508/2606 31016G28KT P6SM OVC020
      TEMPO 2508/2510 6SM -RA BKN015
     FM251000 33022G32KT 6SM -RASN OVC015
      TEMPO 2510/2513 5SM -SN OVC008
     FM251300 33023G32KT P6SM OVC015
     FM251700 34020G30KT P6SM OVC025
     FM252100 35013KT P6SM BKN050
     FM260400 VRB04KT P6SM BKN250=



000
FTUS43 KOAX 250819 AAB
TAFOMA
TAF AMD
KOMA 250819Z 2508/2606 31016G28KT P6SM OVC020
      TEMPO 2508/2510 6SM -RA BKN015
     FM251000 33022G32KT 6SM -RASN OVC015
      TEMPO 2510/2513 5SM -SN OVC008
     FM251300 33023G32KT P6SM OVC015
     FM251700 34020G30KT P6SM OVC025
     FM252100 35013KT P6SM BKN050
     FM260400 VRB04KT P6SM BKN250=



000
FTUS43 KOAX 250814 AAB
TAFOFK
TAF AMD
KOFK 250814Z 2508/2606 33022G32KT P6SM SCT008 OVC015
      TEMPO 2508/2510 3SM -SN BR OVC008
     FM251200 34020G30KT P6SM OVC015
     FM251700 34015G25KT P6SM OVC015
     FM252000 33013KT P6SM OVC025
     FM260100 29005KT P6SM BKN050=



000
FTUS43 KOAX 250814 AAB
TAFOFK
TAF AMD
KOFK 250814Z 2508/2606 33022G32KT P6SM SCT008 OVC015
      TEMPO 2508/2510 3SM -SN BR OVC008
     FM251200 34020G30KT P6SM OVC015
     FM251700 34015G25KT P6SM OVC015
     FM252000 33013KT P6SM OVC025
     FM260100 29005KT P6SM BKN050=



000
FTUS43 KOAX 250814 AAB
TAFOFK
TAF AMD
KOFK 250814Z 2508/2606 33022G32KT P6SM SCT008 OVC015
      TEMPO 2508/2510 3SM -SN BR OVC008
     FM251200 34020G30KT P6SM OVC015
     FM251700 34015G25KT P6SM OVC015
     FM252000 33013KT P6SM OVC025
     FM260100 29005KT P6SM BKN050=



000
FTUS43 KOAX 250713 AAA
TAFOFK
TAF AMD
KOFK 250713Z 2507/2606 33024G36KT P6SM SCT008 OVC015
      TEMPO 2509/2513 6SM -RASN OVC008
     FM251300 34020G30KT P6SM OVC015
     FM251700 34015G25KT P6SM OVC015
     FM252000 33013KT P6SM OVC025
     FM260100 29005KT P6SM BKN050=



000
FTUS43 KOAX 250713 AAA
TAFOFK
TAF AMD
KOFK 250713Z 2507/2606 33024G36KT P6SM SCT008 OVC015
      TEMPO 2509/2513 6SM -RASN OVC008
     FM251300 34020G30KT P6SM OVC015
     FM251700 34015G25KT P6SM OVC015
     FM252000 33013KT P6SM OVC025
     FM260100 29005KT P6SM BKN050=



000
FTUS43 KOAX 250706 AAA
TAFLNK
TAF AMD
KLNK 250706Z 2507/2606 32016G25KT P6SM BKN025 OVC050
     FM250800 33020G32KT P6SM OVC020
     FM251100 34025G35KT P6SM OVC015
     FM251600 35022G32KT P6SM OVC025
     FM252200 36014KT P6SM BKN050
     FM260400 VRB04KT P6SM BKN250=



000
FTUS43 KOAX 250612 AAA
TAFOMA
TAF AMD
KOMA 250612Z 2506/2606 31016G28KT P6SM SCT025 OVC070
      TEMPO 2506/2508 6SM -RA BKN025
     FM250800 33025G34KT P6SM OVC015
      TEMPO 2510/2514 6SM -RASN OVC007
     FM251700 34024G31KT P6SM OVC025
     FM252100 35013KT P6SM BKN050
     FM260400 VRB04KT P6SM BKN250=



000
FTUS43 KOAX 250612 AAA
TAFOMA
TAF AMD
KOMA 250612Z 2506/2606 31016G28KT P6SM SCT025 OVC070
      TEMPO 2506/2508 6SM -RA BKN025
     FM250800 33025G34KT P6SM OVC015
      TEMPO 2510/2514 6SM -RASN OVC007
     FM251700 34024G31KT P6SM OVC025
     FM252100 35013KT P6SM BKN050
     FM260400 VRB04KT P6SM BKN250=



000
FTUS43 KOAX 250535
TAFOMA
TAF
KOMA 250535Z 2506/2606 31007KT P6SM BKN080
     FM250800 33025G34KT P6SM OVC015
      TEMPO 2510/2514 6SM -RASN OVC007
     FM251700 34024G31KT P6SM OVC025
     FM252100 35013KT P6SM BKN050
     FM260400 VRB04KT P6SM BKN250=



000
FTUS43 KOAX 250535
TAFOFK
TAF
KOFK 250535Z 2506/2606 31020G33KT P6SM BKN025
     FM250800 33023G35KT P6SM OVC015
      TEMPO 2509/2513 6SM -RASN OVC007
     FM251600 34018G26KT P6SM OVC015
     FM252200 35009KT P6SM BKN050
     FM260300 VRB04KT P6SM BKN250=



000
FTUS43 KOAX 250535
TAFLNK
TAF
KLNK 250535Z 2506/2606 32016G25KT P6SM BKN060
     FM250900 33023G35KT P6SM OVC015
      TEMPO 2510/2514 6SM -RASN OVC010
     FM251600 35026G34KT P6SM OVC025
     FM252200 36014KT P6SM BKN050
     FM260400 VRB04KT P6SM BKN250=



000
FTUS43 KOAX 250535
TAFLNK
TAF
KLNK 250535Z 2506/2606 32016G25KT P6SM BKN060
     FM250900 33023G35KT P6SM OVC015
      TEMPO 2510/2514 6SM -RASN OVC010
     FM251600 35026G34KT P6SM OVC025
     FM252200 36014KT P6SM BKN050
     FM260400 VRB04KT P6SM BKN250=



000
FTUS43 KOAX 250535
TAFOMA
TAF
KOMA 250535Z 2506/2606 31007KT P6SM BKN080
     FM250800 33025G34KT P6SM OVC015
      TEMPO 2510/2514 6SM -RASN OVC007
     FM251700 34024G31KT P6SM OVC025
     FM252100 35013KT P6SM BKN050
     FM260400 VRB04KT P6SM BKN250=



000
FTUS43 KOAX 250535
TAFOFK
TAF
KOFK 250535Z 2506/2606 31020G33KT P6SM BKN025
     FM250800 33023G35KT P6SM OVC015
      TEMPO 2509/2513 6SM -RASN OVC007
     FM251600 34018G26KT P6SM OVC015
     FM252200 35009KT P6SM BKN050
     FM260300 VRB04KT P6SM BKN250=



000
FTUS43 KOAX 242320
TAFOFK
TAF
KOFK 242320Z 2500/2524 27011KT P6SM BKN080
     FM250200 29018G30KT P6SM OVC040
     FM250400 32025G34KT P6SM OVC030
      TEMPO 2505/2507 5SM -SHRA OVC020
     FM250800 33023G32KT 4SM -SHRA BKN015 OVC025
      TEMPO 2513/2515 3SM -SHSN OVC015
     FM251600 34018G26KT P6SM OVC015
     FM252200 35009KT P6SM BKN050=



000
FTUS43 KOAX 242320
TAFLNK
TAF
KLNK 242320Z 2500/2524 27011KT P6SM BKN110
     FM250200 29013KT P6SM BKN050
     FM250400 32017G28KT P6SM OVC035
     FM251000 33023G33KT P6SM OVC025
     FM251200 33027G35KT 4SM -SHRA OVC015
     FM251600 35026G34KT P6SM OVC015
     FM252200 36014KT P6SM BKN050=



000
FTUS43 KOAX 242320
TAFOFK
TAF
KOFK 242320Z 2500/2524 27011KT P6SM BKN080
     FM250200 29018G30KT P6SM OVC040
     FM250400 32025G34KT P6SM OVC030
      TEMPO 2505/2507 5SM -SHRA OVC020
     FM250800 33023G32KT 4SM -SHRA BKN015 OVC025
      TEMPO 2513/2515 3SM -SHSN OVC015
     FM251600 34018G26KT P6SM OVC015
     FM252200 35009KT P6SM BKN050=



000
FTUS43 KOAX 242320
TAFLNK
TAF
KLNK 242320Z 2500/2524 27011KT P6SM BKN110
     FM250200 29013KT P6SM BKN050
     FM250400 32017G28KT P6SM OVC035
     FM251000 33023G33KT P6SM OVC025
     FM251200 33027G35KT 4SM -SHRA OVC015
     FM251600 35026G34KT P6SM OVC015
     FM252200 36014KT P6SM BKN050=



000
FTUS43 KOAX 242320
TAFOMA
TAF
KOMA 242320Z 2500/2524 26007KT P6SM BKN080
     FM250100 28012KT P6SM BKN050
     FM250400 32018G28KT P6SM OVC035
     FM251000 33025G34KT 5SM -SHRA OVC015
      TEMPO 2513/2515 3SM -SHSN OVC015
     FM251700 34024G31KT P6SM OVC025
     FM252100 35013KT P6SM BKN050=



000
FTUS43 KOAX 242320
TAFOMA
TAF
KOMA 242320Z 2500/2524 26007KT P6SM BKN080
     FM250100 28012KT P6SM BKN050
     FM250400 32018G28KT P6SM OVC035
     FM251000 33025G34KT 5SM -SHRA OVC015
      TEMPO 2513/2515 3SM -SHSN OVC015
     FM251700 34024G31KT P6SM OVC025
     FM252100 35013KT P6SM BKN050=



000
FTUS43 KOAX 241724
TAFLNK
TAF
KLNK 241724Z 2418/2518 27011KT P6SM FEW150 SCT250
     FM250200 29013G21KT P6SM SCT050 BKN250
     FM250400 32017G28KT P6SM OVC035
     FM251000 33023G33KT P6SM OVC025
     FM251200 33027G35KT 4SM -SHRA OVC015
     FM251600 35026G34KT P6SM OVC015=



000
FTUS43 KOAX 241724
TAFOMA
TAF
KOMA 241724Z 2418/2518 26007KT P6SM BKN250
     FM250100 28012KT P6SM BKN110 OVC250
     FM250400 32018G28KT P6SM OVC035
     FM251000 33025G34KT 5SM -SHRA OVC015
      TEMPO 2513/2515 3SM -SHSN OVC015
     FM251700 34024G31KT P6SM OVC025=



000
FTUS43 KOAX 241724
TAFOFK
TAF
KOFK 241724Z 2418/2518 27008KT P6SM SCT120 BKN250
     FM250100 29018G30KT P6SM OVC040
     FM250300 32025G34KT P6SM OVC030
      TEMPO 2505/2507 5SM -SHRA OVC020
     FM250800 33023G32KT 4SM -SHRA BKN015 OVC025
      TEMPO 2513/2515 3SM -SHSN OVC015
     FM251600 34018G26KT P6SM OVC015=



000
FTUS43 KOAX 241724
TAFLNK
TAF
KLNK 241724Z 2418/2518 27011KT P6SM FEW150 SCT250
     FM250200 29013G21KT P6SM SCT050 BKN250
     FM250400 32017G28KT P6SM OVC035
     FM251000 33023G33KT P6SM OVC025
     FM251200 33027G35KT 4SM -SHRA OVC015
     FM251600 35026G34KT P6SM OVC015=



000
FTUS43 KOAX 241724
TAFOFK
TAF
KOFK 241724Z 2418/2518 27008KT P6SM SCT120 BKN250
     FM250100 29018G30KT P6SM OVC040
     FM250300 32025G34KT P6SM OVC030
      TEMPO 2505/2507 5SM -SHRA OVC020
     FM250800 33023G32KT 4SM -SHRA BKN015 OVC025
      TEMPO 2513/2515 3SM -SHSN OVC015
     FM251600 34018G26KT P6SM OVC015=



000
FTUS43 KOAX 241724
TAFOMA
TAF
KOMA 241724Z 2418/2518 26007KT P6SM BKN250
     FM250100 28012KT P6SM BKN110 OVC250
     FM250400 32018G28KT P6SM OVC035
     FM251000 33025G34KT 5SM -SHRA OVC015
      TEMPO 2513/2515 3SM -SHSN OVC015
     FM251700 34024G31KT P6SM OVC025=



000
FTUS43 KOAX 241125
TAFLNK
TAF
KLNK 241125Z 2412/2512 28007KT P6SM BKN250
     FM241700 26014KT P6SM BKN150
     FM250200 29015G25KT P6SM OVC050
     FM250400 32020G30KT P6SM OVC035
     FM250800 33023G33KT P6SM OVC025=



000
FTUS43 KOAX 241125
TAFOFK
TAF
KOFK 241125Z 2412/2512 28010KT P6SM BKN250
     FM241700 28013G22KT P6SM BKN120
     FM250100 29018G30KT P6SM OVC040
     FM250300 32025G34KT P6SM OVC030
      TEMPO 2505/2509 5SM -SHRA OVC020
     FM250900 33023G32KT 4SM -SHRA OVC015=



000
FTUS43 KOAX 241125
TAFOMA
TAF
KOMA 241125Z 2412/2512 28005KT P6SM BKN250
     FM241700 26010KT P6SM BKN150
     FM250100 28013KT P6SM OVC040
     FM250400 32018G28KT P6SM OVC025
     FM250800 33025G34KT 5SM -SHRA OVC015=



000
FTUS43 KOAX 241125
TAFOFK
TAF
KOFK 241125Z 2412/2512 28010KT P6SM BKN250
     FM241700 28013G22KT P6SM BKN120
     FM250100 29018G30KT P6SM OVC040
     FM250300 32025G34KT P6SM OVC030
      TEMPO 2505/2509 5SM -SHRA OVC020
     FM250900 33023G32KT 4SM -SHRA OVC015=



000
FTUS43 KOAX 241125
TAFLNK
TAF
KLNK 241125Z 2412/2512 28007KT P6SM BKN250
     FM241700 26014KT P6SM BKN150
     FM250200 29015G25KT P6SM OVC050
     FM250400 32020G30KT P6SM OVC035
     FM250800 33023G33KT P6SM OVC025=



000
FTUS43 KOAX 241125
TAFOMA
TAF
KOMA 241125Z 2412/2512 28005KT P6SM BKN250
     FM241700 26010KT P6SM BKN150
     FM250100 28013KT P6SM OVC040
     FM250400 32018G28KT P6SM OVC025
     FM250800 33025G34KT 5SM -SHRA OVC015=



000
FTUS43 KOAX 240520
TAFOMA
TAF
KOMA 240520Z 2406/2506 32008KT P6SM FEW250
     FM241500 25007KT P6SM BKN250
     FM241900 25011KT P6SM BKN150
     FM250000 26012G20KT P6SM BKN050=



000
FTUS43 KOAX 240520
TAFOFK
TAF
KOFK 240520Z 2406/2506 30008KT P6SM FEW250
     FM241200 27008KT P6SM BKN200
     FM241700 28012G20KT P6SM BKN120
     FM242300 29014G22KT P6SM BKN040=



000
FTUS43 KOAX 240520
TAFLNK
TAF
KLNK 240520Z 2406/2506 30007KT P6SM SCT100
     FM241400 26007KT P6SM BKN250
     FM241700 26012KT P6SM BKN150
     FM242300 27013KT P6SM BKN050=



000
FTUS43 KOAX 240520
TAFLNK
TAF
KLNK 240520Z 2406/2506 30007KT P6SM SCT100
     FM241400 26007KT P6SM BKN250
     FM241700 26012KT P6SM BKN150
     FM242300 27013KT P6SM BKN050=



000
FTUS43 KOAX 240520
TAFOMA
TAF
KOMA 240520Z 2406/2506 32008KT P6SM FEW250
     FM241500 25007KT P6SM BKN250
     FM241900 25011KT P6SM BKN150
     FM250000 26012G20KT P6SM BKN050=



000
FTUS43 KOAX 240520
TAFOFK
TAF
KOFK 240520Z 2406/2506 30008KT P6SM FEW250
     FM241200 27008KT P6SM BKN200
     FM241700 28012G20KT P6SM BKN120
     FM242300 29014G22KT P6SM BKN040=



000
FTUS43 KOAX 232320
TAFOMA
TAF
KOMA 232320Z 2400/2424 27007KT P6SM SCT070 BKN250
     FM240100 32009KT P6SM FEW250
     FM241500 25007KT P6SM BKN250=



000
FTUS43 KOAX 232320
TAFLNK
TAF
KLNK 232320Z 2400/2424 32008KT P6SM SCT100
     FM241000 30005KT P6SM SCT250
     FM241600 27010KT P6SM BKN250=



000
FTUS43 KOAX 232320
TAFOMA
TAF
KOMA 232320Z 2400/2424 27007KT P6SM SCT070 BKN250
     FM240100 32009KT P6SM FEW250
     FM241500 25007KT P6SM BKN250=



000
FTUS43 KOAX 232320
TAFOFK
TAF
KOFK 232320Z 2400/2424 32011KT P6SM SCT100
     FM241200 28006KT P6SM SCT250
     FM241700 28010KT P6SM BKN150=



000
FTUS43 KOAX 232320
TAFOFK
TAF
KOFK 232320Z 2400/2424 32011KT P6SM SCT100
     FM241200 28006KT P6SM SCT250
     FM241700 28010KT P6SM BKN150=



000
FTUS43 KOAX 232320
TAFLNK
TAF
KLNK 232320Z 2400/2424 32008KT P6SM SCT100
     FM241000 30005KT P6SM SCT250
     FM241600 27010KT P6SM BKN250=



000
FTUS43 KOAX 232227 AAA
TAFOMA
TAF AMD
KOMA 232227Z 2322/2418 27007KT P6SM SCT070 BKN250
     FM240100 32009KT P6SM FEW250
     FM241400 24006KT P6SM BKN250=



000
FTUS43 KOAX 232223 AAA
TAFOFK
TAF AMD
KOFK 232223Z 2322/2418 32011KT P6SM SCT100
     FM241200 28006KT P6SM SCT250
     FM241700 28010KT P6SM BKN150=



000
FTUS43 KOAX 232223 AAA
TAFOFK
TAF AMD
KOFK 232223Z 2322/2418 32011KT P6SM SCT100
     FM241200 28006KT P6SM SCT250
     FM241700 28010KT P6SM BKN150=



000
FTUS43 KOAX 231720
TAFLNK
TAF
KLNK 231720Z 2318/2418 22010KT P6SM BKN150
     FM232300 32009KT P6SM SCT120=



000
FTUS43 KOAX 231720
TAFLNK
TAF
KLNK 231720Z 2318/2418 22010KT P6SM BKN150
     FM232300 32009KT P6SM SCT120=



000
FTUS43 KOAX 231720
TAFOMA
TAF
KOMA 231720Z 2318/2418 19009KT P6SM BKN150
     FM240000 32009KT P6SM SCT120=



000
FTUS43 KOAX 231720
TAFOMA
TAF
KOMA 231720Z 2318/2418 19009KT P6SM BKN150
     FM240000 32009KT P6SM SCT120=



000
FTUS43 KOAX 231720
TAFOFK
TAF
KOFK 231720Z 2318/2418 30011KT P6SM SCT120=



000
FTUS43 KOAX 231720
TAFOFK
TAF
KOFK 231720Z 2318/2418 30011KT P6SM SCT120=



000
FTUS43 KOAX 231120
TAFOMA
TAF
KOMA 231120Z 2312/2412 15008KT P6SM SKC
     FM231600 18009KT P6SM BKN120
     FM232100 25010KT P6SM BKN090
     FM232300 31009KT P6SM SCT100=



000
FTUS43 KOAX 231120
TAFOMA
TAF
KOMA 231120Z 2312/2412 15008KT P6SM SKC
     FM231600 18009KT P6SM BKN120
     FM232100 25010KT P6SM BKN090
     FM232300 31009KT P6SM SCT100=



000
FTUS43 KOAX 231120
TAFOFK
TAF
KOFK 231120Z 2312/2412 22010KT P6SM BKN120
     FM231700 30012KT P6SM SCT050 OVC090
     FM232300 32010KT P6SM SCT250=



000
FTUS43 KOAX 231120
TAFLNK
TAF
KLNK 231120Z 2312/2412 17006KT P6SM SKC
     FM231500 21010KT P6SM BKN120
     FM231900 24012KT P6SM BKN090
     FM232200 30010KT P6SM SCT090
     FM240100 32008KT P6SM SKC=



000
FTUS43 KOAX 231120
TAFOFK
TAF
KOFK 231120Z 2312/2412 22010KT P6SM BKN120
     FM231700 30012KT P6SM SCT050 OVC090
     FM232300 32010KT P6SM SCT250=



000
FTUS43 KOAX 231120
TAFLNK
TAF
KLNK 231120Z 2312/2412 17006KT P6SM SKC
     FM231500 21010KT P6SM BKN120
     FM231900 24012KT P6SM BKN090
     FM232200 30010KT P6SM SCT090
     FM240100 32008KT P6SM SKC=



000
FTUS43 KOAX 230522
TAFOMA
TAF
KOMA 230522Z 2306/2406 17008KT P6SM SKC
     FM231500 18009KT P6SM BKN120
     FM231900 23011KT P6SM BKN090
     FM232300 31012KT P6SM SCT100=



000
FTUS43 KOAX 230522
TAFOFK
TAF
KOFK 230522Z 2306/2406 18011KT P6SM FEW250
     FM231200 23007KT P6SM BKN120
     FM231700 31013G20KT P6SM FEW040 BKN090
     FM232300 32010KT P6SM SCT250=



000
FTUS43 KOAX 230522
TAFLNK
TAF
KLNK 230522Z 2306/2406 18008KT P6SM SKC
     FM231300 21006KT P6SM SCT250
     FM231800 24012KT P6SM BKN100
     FM232200 31012KT P6SM BKN090
     FM240100 32008KT P6SM SCT100=



000
FTUS43 KOAX 230522
TAFLNK
TAF
KLNK 230522Z 2306/2406 18008KT P6SM SKC
     FM231300 21006KT P6SM SCT250
     FM231800 24012KT P6SM BKN100
     FM232200 31012KT P6SM BKN090
     FM240100 32008KT P6SM SCT100=



000
FTUS43 KOAX 230522
TAFOFK
TAF
KOFK 230522Z 2306/2406 18011KT P6SM FEW250
     FM231200 23007KT P6SM BKN120
     FM231700 31013G20KT P6SM FEW040 BKN090
     FM232300 32010KT P6SM SCT250=



000
FTUS43 KOAX 230522
TAFOMA
TAF
KOMA 230522Z 2306/2406 17008KT P6SM SKC
     FM231500 18009KT P6SM BKN120
     FM231900 23011KT P6SM BKN090
     FM232300 31012KT P6SM SCT100=



000
FTUS43 KOAX 230407 AAA
TAFOFK
TAF AMD
KOFK 230407Z 2304/2324 18011KT P6SM SKC
     FM231200 23005KT P6SM SCT120
     FM231500 25008KT P6SM BKN100
     FM231700 31013G20KT P6SM FEW040 BKN090=



000
FTUS43 KOAX 222320
TAFLNK
TAF
KLNK 222320Z 2300/2324 18006KT P6SM SKC
     FM231700 23012KT P6SM BKN100
     FM232100 30012KT P6SM BKN090=



000
FTUS43 KOAX 222320
TAFOFK
TAF
KOFK 222320Z 2300/2324 18008KT P6SM SKC
     FM231500 25008KT P6SM BKN100
     FM231700 31013G20KT P6SM FEW040 BKN090=



000
FTUS43 KOAX 222320
TAFOFK
TAF
KOFK 222320Z 2300/2324 18008KT P6SM SKC
     FM231500 25008KT P6SM BKN100
     FM231700 31013G20KT P6SM FEW040 BKN090=



000
FTUS43 KOAX 222320
TAFOMA
TAF
KOMA 222320Z 2300/2324 17007KT P6SM SKC
     FM231800 22011KT P6SM BKN100
     FM232100 29012KT P6SM BKN080=



000
FTUS43 KOAX 222320
TAFLNK
TAF
KLNK 222320Z 2300/2324 18006KT P6SM SKC
     FM231700 23012KT P6SM BKN100
     FM232100 30012KT P6SM BKN090=



000
FTUS43 KOAX 222320
TAFOMA
TAF
KOMA 222320Z 2300/2324 17007KT P6SM SKC
     FM231800 22011KT P6SM BKN100
     FM232100 29012KT P6SM BKN080=



    US Dept of Commerce
    National Oceanic and Atmospheric Administration
    National Weather Service
    1325 East West Highway
    Silver Spring, MD 20910
    Page Author: NWS Internet Services Team
Disclaimer
Information Quality
Credits
Glossary
Privacy Policy
Freedom of Information Act (FOIA)
About Us
Career Opportunities